sensor_id;sensor_type;location;lat;lon;timestamp;pressure;altitude;pressure_sealevel;temperature;humidity
70323;BME280;57735;56.264;43.898;2023-03-15T00:01:31;100765.00;;;2.98;54.11
70323;BME280;57735;56.264;43.898;2023-03-15T00:04:01;100760.88;;;2.94;54.34
70323;BME280;57735;56.264;43.898;2023-03-15T00:06:35;100756.72;;;2.90;54.55
70323;BME280;57735;56.264;43.898;2023-03-15T00:09:05;100759.66;;;2.86;54.61
70323;BME280;57735;56.264;43.898;2023-03-15T00:11:36;100755.44;;;2.83;54.90
70323;BME280;57735;56.264;43.898;2023-03-15T00:14:07;100758.25;;;2.80;54.94
70323;BME280;57735;56.264;43.898;2023-03-15T00:16:37;100764.56;;;2.77;54.95
70323;BME280;57735;56.264;43.898;2023-03-15T00:19:08;100766.53;;;2.74;55.37
70323;BME280;57735;56.264;43.898;2023-03-15T00:21:39;100763.13;;;2.72;55.21
70323;BME280;57735;56.264;43.898;2023-03-15T00:24:12;100770.28;;;2.70;55.18
70323;BME280;57735;56.264;43.898;2023-03-15T00:26:45;100765.00;;;2.70;55.25
70323;BME280;57735;56.264;43.898;2023-03-15T00:29:15;100763.31;;;2.69;55.59
70323;BME280;57735;56.264;43.898;2023-03-15T00:31:46;100759.13;;;2.66;55.58
70323;BME280;57735;56.264;43.898;2023-03-15T00:34:17;100761.84;;;2.65;55.92
70323;BME280;57735;56.264;43.898;2023-03-15T00:36:48;100755.72;;;2.64;55.89
70323;BME280;57735;56.264;43.898;2023-03-15T00:39:19;100755.81;;;2.63;55.87
70323;BME280;57735;56.264;43.898;2023-03-15T00:41:56;100757.41;;;2.65;56.04
70323;BME280;57735;56.264;43.898;2023-03-15T00:44:27;100759.28;;;2.63;56.12
70323;BME280;57735;56.264;43.898;2023-03-15T00:46:58;100746.22;;;2.62;56.06
70323;BME280;57735;56.264;43.898;2023-03-15T00:49:28;100757.88;;;2.58;56.35
70323;BME280;57735;56.264;43.898;2023-03-15T00:51:59;100755.34;;;2.56;56.68
70323;BME280;57735;56.264;43.898;2023-03-15T00:54:29;100774.59;;;2.57;56.52
70323;BME280;57735;56.264;43.898;2023-03-15T00:57:02;100770.28;;;2.56;56.78
70323;BME280;57735;56.264;43.898;2023-03-15T00:59:33;100760.69;;;2.55;56.64
70323;BME280;57735;56.264;43.898;2023-03-15T01:02:04;100765.94;;;2.55;56.73
70323;BME280;57735;56.264;43.898;2023-03-15T01:04:36;100771.22;;;2.55;56.98
70323;BME280;57735;56.264;43.898;2023-03-15T01:07:07;100751.19;;;2.52;56.85
70323;BME280;57735;56.264;43.898;2023-03-15T01:09:37;100770.47;;;2.53;56.77
70323;BME280;57735;56.264;43.898;2023-03-15T01:12:08;100767.72;;;2.54;56.74
70323;BME280;57735;56.264;43.898;2023-03-15T01:14:38;100759.00;;;2.54;56.88
70323;BME280;57735;56.264;43.898;2023-03-15T01:17:09;100758.16;;;2.53;57.23
70323;BME280;57735;56.264;43.898;2023-03-15T01:19:40;100763.31;;;2.55;56.81
70323;BME280;57735;56.264;43.898;2023-03-15T01:22:10;100766.53;;;2.60;57.04
70323;BME280;57735;56.264;43.898;2023-03-15T01:24:41;100770.66;;;2.64;56.90
70323;BME280;57735;56.264;43.898;2023-03-15T01:27:11;100771.34;;;2.67;56.90
70323;BME280;57735;56.264;43.898;2023-03-15T01:29:44;100773.84;;;2.69;56.73
70323;BME280;57735;56.264;43.898;2023-03-15T01:32:15;100784.38;;;2.69;56.89
70323;BME280;57735;56.264;43.898;2023-03-15T01:34:45;100777.44;;;2.68;57.14
70323;BME280;57735;56.264;43.898;2023-03-15T01:37:16;100778.16;;;2.70;56.90
70323;BME280;57735;56.264;43.898;2023-03-15T01:39:49;100779.78;;;2.72;56.88
70323;BME280;57735;56.264;43.898;2023-03-15T01:42:20;100777.06;;;2.74;57.02
70323;BME280;57735;56.264;43.898;2023-03-15T01:44:52;100778.75;;;2.75;57.01
70323;BME280;57735;56.264;43.898;2023-03-15T01:47:25;100769.81;;;2.77;57.01
70323;BME280;57735;56.264;43.898;2023-03-15T01:50:02;100781.19;;;2.78;57.00
70323;BME280;57735;56.264;43.898;2023-03-15T01:52:38;100783.75;;;2.79;57.21
70323;BME280;57735;56.264;43.898;2023-03-15T01:55:11;100790.78;;;2.79;57.05
70323;BME280;57735;56.264;43.898;2023-03-15T01:57:45;100783.75;;;2.79;57.19
70323;BME280;57735;56.264;43.898;2023-03-15T02:00:18;100784.69;;;2.78;57.21
70323;BME280;57735;56.264;43.898;2023-03-15T02:02:54;100787.31;;;2.78;57.31
70323;BME280;57735;56.264;43.898;2023-03-15T02:05:28;100797.00;;;2.78;57.46
70323;BME280;57735;56.264;43.898;2023-03-15T02:08:01;100802.34;;;2.76;57.52
70323;BME280;57735;56.264;43.898;2023-03-15T02:10:36;100788.16;;;2.79;57.51
70323;BME280;57735;56.264;43.898;2023-03-15T02:13:10;100791.72;;;2.78;57.59
70323;BME280;57735;56.264;43.898;2023-03-15T02:15:43;100790.88;;;2.77;57.32
70323;BME280;57735;56.264;43.898;2023-03-15T02:18:15;100796.72;;;2.83;57.43
70323;BME280;57735;56.264;43.898;2023-03-15T02:23:43;100781.69;;;2.85;57.49
70323;BME280;57735;56.264;43.898;2023-03-15T02:28:54;100794.72;;;2.86;57.25
70323;BME280;57735;56.264;43.898;2023-03-15T02:31:25;100797.34;;;2.86;57.45
70323;BME280;57735;56.264;43.898;2023-03-15T02:33:55;100797.34;;;2.86;57.32
70323;BME280;57735;56.264;43.898;2023-03-15T02:36:26;100798.00;;;2.90;57.36
70323;BME280;57735;56.264;43.898;2023-03-15T02:38:57;100795.38;;;2.90;57.44
70323;BME280;57735;56.264;43.898;2023-03-15T02:41:37;100804.13;;;2.90;57.27
70323;BME280;57735;56.264;43.898;2023-03-15T02:46:42;100797.06;;;2.91;57.20
70323;BME280;57735;56.264;43.898;2023-03-15T02:49:15;100796.91;;;2.94;57.04
70323;BME280;57735;56.264;43.898;2023-03-15T02:51:46;100795.09;;;2.94;56.99
70323;BME280;57735;56.264;43.898;2023-03-15T02:54:17;100796.31;;;2.89;57.16
70323;BME280;57735;56.264;43.898;2023-03-15T02:56:47;100790.38;;;2.85;57.23
70323;BME280;57735;56.264;43.898;2023-03-15T02:59:18;100799.34;;;2.83;57.30
70323;BME280;57735;56.264;43.898;2023-03-15T03:01:48;100801.31;;;2.79;57.28
70323;BME280;57735;56.264;43.898;2023-03-15T03:04:19;100805.66;;;2.80;57.17
70323;BME280;57735;56.264;43.898;2023-03-15T03:06:49;100805.66;;;2.80;57.09
70323;BME280;57735;56.264;43.898;2023-03-15T03:09:20;100804.88;;;2.78;57.19
70323;BME280;57735;56.264;43.898;2023-03-15T03:11:51;100796.41;;;2.73;57.40
70323;BME280;57735;56.264;43.898;2023-03-15T03:14:22;100801.00;;;2.69;57.40
70323;BME280;57735;56.264;43.898;2023-03-15T03:16:55;100794.28;;;2.65;57.50
70323;BME280;57735;56.264;43.898;2023-03-15T03:19:26;100794.53;;;2.61;57.75
70323;BME280;57735;56.264;43.898;2023-03-15T03:21:56;100794.81;;;2.56;57.78
70323;BME280;57735;56.264;43.898;2023-03-15T03:24:27;100791.63;;;2.51;58.00
70323;BME280;57735;56.264;43.898;2023-03-15T03:27:00;100790.03;;;2.49;57.87
70323;BME280;57735;56.264;43.898;2023-03-15T03:29:31;100793.59;;;2.48;57.90
70323;BME280;57735;56.264;43.898;2023-03-15T03:32:01;100792.84;;;2.45;58.05
70323;BME280;57735;56.264;43.898;2023-03-15T03:34:32;100791.22;;;2.43;58.18
70323;BME280;57735;56.264;43.898;2023-03-15T03:37:02;100786.13;;;2.40;58.21
70323;BME280;57735;56.264;43.898;2023-03-15T03:39:33;100793.28;;;2.38;58.28
70323;BME280;57735;56.264;43.898;2023-03-15T03:42:06;100809.16;;;2.36;58.37
70323;BME280;57735;56.264;43.898;2023-03-15T03:44:37;100802.19;;;2.35;58.59
70323;BME280;57735;56.264;43.898;2023-03-15T03:47:07;100796.28;;;2.32;58.54
70323;BME280;57735;56.264;43.898;2023-03-15T03:49:38;100802.56;;;2.29;58.79
70323;BME280;57735;56.264;43.898;2023-03-15T03:52:08;100800.88;;;2.28;58.90
70323;BME280;57735;56.264;43.898;2023-03-15T03:54:39;100808.00;;;2.26;58.99
70323;BME280;57735;56.264;43.898;2023-03-15T03:57:11;100812.50;;;2.24;59.13
70323;BME280;57735;56.264;43.898;2023-03-15T03:59:42;100815.13;;;2.24;59.04
70323;BME280;57735;56.264;43.898;2023-03-15T04:02:12;100824.06;;;2.22;59.23
70323;BME280;57735;56.264;43.898;2023-03-15T04:04:43;100826.69;;;2.22;58.98
70323;BME280;57735;56.264;43.898;2023-03-15T04:07:13;100828.56;;;2.20;59.12
70323;BME280;57735;56.264;43.898;2023-03-15T04:09:46;100822.44;;;2.19;59.17
70323;BME280;57735;56.264;43.898;2023-03-15T04:12:17;100819.09;;;2.17;59.04
70323;BME280;57735;56.264;43.898;2023-03-15T04:14:47;100839.28;;;2.17;58.96
70323;BME280;57735;56.264;43.898;2023-03-15T04:17:18;100824.34;;;2.17;59.17
70323;BME280;57735;56.264;43.898;2023-03-15T04:19:48;100832.22;;;2.17;59.34
70323;BME280;57735;56.264;43.898;2023-03-15T04:22:19;100830.53;;;2.16;59.36
70323;BME280;57735;56.264;43.898;2023-03-15T04:24:49;100848.09;;;2.16;59.41
70323;BME280;57735;56.264;43.898;2023-03-15T04:27:20;100844.63;;;2.15;59.80
70323;BME280;57735;56.264;43.898;2023-03-15T04:29:50;100845.56;;;2.14;59.63
70323;BME280;57735;56.264;43.898;2023-03-15T04:32:21;100849.13;;;2.13;59.52
70323;BME280;57735;56.264;43.898;2023-03-15T04:34:52;100848.09;;;2.16;59.63
70323;BME280;57735;56.264;43.898;2023-03-15T04:37:25;100852.41;;;2.17;59.51
70323;BME280;57735;56.264;43.898;2023-03-15T04:39:55;100854.13;;;2.18;59.56
70323;BME280;57735;56.264;43.898;2023-03-15T04:42:26;100859.25;;;2.19;59.50
70323;BME280;57735;56.264;43.898;2023-03-15T04:44:56;100863.41;;;2.23;59.33
70323;BME280;57735;56.264;43.898;2023-03-15T04:47:27;100869.25;;;2.28;59.03
70323;BME280;57735;56.264;43.898;2023-03-15T04:49:57;100864.38;;;2.36;59.08
70323;BME280;57735;56.264;43.898;2023-03-15T04:52:28;100868.38;;;2.43;59.05
70323;BME280;57735;56.264;43.898;2023-03-15T04:54:58;100871.50;;;2.50;58.89
70323;BME280;57735;56.264;43.898;2023-03-15T04:57:28;100885.88;;;2.59;58.91
70323;BME280;57735;56.264;43.898;2023-03-15T04:59:59;100880.34;;;2.63;58.62
70323;BME280;57735;56.264;43.898;2023-03-15T05:02:29;100881.66;;;2.70;58.28
70323;BME280;57735;56.264;43.898;2023-03-15T05:05:02;100892.69;;;2.77;58.32
70323;BME280;57735;56.264;43.898;2023-03-15T05:07:40;100891.50;;;2.83;58.06
70323;BME280;57735;56.264;43.898;2023-03-15T05:10:11;100898.53;;;2.82;57.88
70323;BME280;57735;56.264;43.898;2023-03-15T05:12:43;100893.19;;;2.84;58.07
70323;BME280;57735;56.264;43.898;2023-03-15T05:15:13;100901.16;;;2.82;57.87
70323;BME280;57735;56.264;43.898;2023-03-15T05:17:44;100896.47;;;2.87;57.98
70323;BME280;57735;56.264;43.898;2023-03-15T05:20:15;100885.66;;;2.92;57.75
70323;BME280;57735;56.264;43.898;2023-03-15T05:22:46;100892.53;;;2.94;57.43
70323;BME280;57735;56.264;43.898;2023-03-15T05:25:16;100892.06;;;3.02;57.46
70323;BME280;57735;56.264;43.898;2023-03-15T05:27:47;100894.22;;;3.09;57.41
70323;BME280;57735;56.264;43.898;2023-03-15T05:30:20;100905.16;;;3.18;57.38
70323;BME280;57735;56.264;43.898;2023-03-15T05:32:50;100904.59;;;3.27;57.08
70323;BME280;57735;56.264;43.898;2023-03-15T05:35:21;100906.75;;;3.34;57.01
70323;BME280;57735;56.264;43.898;2023-03-15T05:37:55;100899.97;;;3.30;56.90
70323;BME280;57735;56.264;43.898;2023-03-15T05:40:26;100904.75;;;3.38;56.74
70323;BME280;57735;56.264;43.898;2023-03-15T05:42:59;100907.31;;;3.39;56.91
70323;BME280;57735;56.264;43.898;2023-03-15T05:45:29;100904.22;;;3.47;56.63
70323;BME280;57735;56.264;43.898;2023-03-15T05:48:00;100910.59;;;3.57;56.59
70323;BME280;57735;56.264;43.898;2023-03-15T05:50:30;100908.97;;;3.69;56.20
70323;BME280;57735;56.264;43.898;2023-03-15T05:53:01;100909.25;;;3.78;56.25
70323;BME280;57735;56.264;43.898;2023-03-15T05:55:31;100897.06;;;3.90;56.01
70323;BME280;57735;56.264;43.898;2023-03-15T05:58:02;100898.19;;;4.00;55.51
70323;BME280;57735;56.264;43.898;2023-03-15T06:00:32;100912.09;;;4.02;55.26
70323;BME280;57735;56.264;43.898;2023-03-15T06:03:03;100907.47;;;4.06;55.28
70323;BME280;57735;56.264;43.898;2023-03-15T06:05:33;100904.06;;;4.04;55.39
70323;BME280;57735;56.264;43.898;2023-03-15T06:08:04;100911.28;;;4.02;55.42
70323;BME280;57735;56.264;43.898;2023-03-15T06:10:34;100903.69;;;4.10;55.16
70323;BME280;57735;56.264;43.898;2023-03-15T06:13:07;100908.56;;;4.16;55.30
70323;BME280;57735;56.264;43.898;2023-03-15T06:15:38;100913.75;;;4.17;55.18
70323;BME280;57735;56.264;43.898;2023-03-15T06:18:09;100913.91;;;4.29;54.99
70323;BME280;57735;56.264;43.898;2023-03-15T06:20:39;100921.09;;;4.39;55.08
70323;BME280;57735;56.264;43.898;2023-03-15T06:23:10;100914.78;;;4.42;54.18
70323;BME280;57735;56.264;43.898;2023-03-15T06:25:40;100908.44;;;4.44;54.49
70323;BME280;57735;56.264;43.898;2023-03-15T06:28:11;100915.66;;;4.55;54.17
70323;BME280;57735;56.264;43.898;2023-03-15T06:30:41;100922.03;;;4.65;53.66
70323;BME280;57735;56.264;43.898;2023-03-15T06:33:12;100926.47;;;4.77;53.66
70323;BME280;57735;56.264;43.898;2023-03-15T06:35:42;100931.56;;;4.80;53.65
70323;BME280;57735;56.264;43.898;2023-03-15T06:38:15;100920.16;;;4.80;53.48
70323;BME280;57735;56.264;43.898;2023-03-15T06:40:46;100936.53;;;4.85;53.31
70323;BME280;57735;56.264;43.898;2023-03-15T06:43:17;100936.66;;;4.96;53.39
70323;BME280;57735;56.264;43.898;2023-03-15T06:45:48;100934.41;;;4.90;53.22
70323;BME280;57735;56.264;43.898;2023-03-15T06:48:19;100940.69;;;5.02;52.94
70323;BME280;57735;56.264;43.898;2023-03-15T06:50:49;100940.69;;;5.14;53.18
70323;BME280;57735;56.264;43.898;2023-03-15T06:53:20;100912.84;;;5.21;52.58
70323;BME280;57735;56.264;43.898;2023-03-15T06:55:53;100933.50;;;5.29;53.02
70323;BME280;57735;56.264;43.898;2023-03-15T06:58:23;100943.00;;;5.32;52.39
70323;BME280;57735;56.264;43.898;2023-03-15T07:00:54;100932.22;;;5.35;52.20
70323;BME280;57735;56.264;43.898;2023-03-15T07:03:24;100946.78;;;5.40;52.24
70323;BME280;57735;56.264;43.898;2023-03-15T07:05:55;100946.16;;;5.49;51.88
70323;BME280;57735;56.264;43.898;2023-03-15T07:08:26;100935.50;;;5.51;51.92
70323;BME280;57735;56.264;43.898;2023-03-15T07:10:58;100931.56;;;5.56;52.15
70323;BME280;57735;56.264;43.898;2023-03-15T07:13:29;100925.63;;;5.66;52.33
70323;BME280;57735;56.264;43.898;2023-03-15T07:16:05;100943.94;;;5.69;51.60
70323;BME280;57735;56.264;43.898;2023-03-15T07:18:36;100938.50;;;5.70;51.58
70323;BME280;57735;56.264;43.898;2023-03-15T07:21:06;100931.41;;;5.83;51.40
70323;BME280;57735;56.264;43.898;2023-03-15T07:23:37;100939.56;;;5.93;51.05
70323;BME280;57735;56.264;43.898;2023-03-15T07:26:07;100942.72;;;5.98;50.73
70323;BME280;57735;56.264;43.898;2023-03-15T07:28:38;100943.72;;;6.08;50.61
70323;BME280;57735;56.264;43.898;2023-03-15T07:31:09;100941.34;;;6.29;50.20
70323;BME280;57735;56.264;43.898;2023-03-15T07:33:42;100950.69;;;6.46;49.76
70323;BME280;57735;56.264;43.898;2023-03-15T07:36:12;100951.31;;;6.49;49.74
70323;BME280;57735;56.264;43.898;2023-03-15T07:38:43;100952.50;;;6.45;49.70
70323;BME280;57735;56.264;43.898;2023-03-15T07:41:13;100961.16;;;6.47;49.65
70323;BME280;57735;56.264;43.898;2023-03-15T07:43:44;100950.13;;;6.53;49.85
70323;BME280;57735;56.264;43.898;2023-03-15T07:46:14;100964.94;;;6.56;49.74
70323;BME280;57735;56.264;43.898;2023-03-15T07:48:48;100958.13;;;6.41;50.44
70323;BME280;57735;56.264;43.898;2023-03-15T07:51:18;100961.22;;;6.35;50.09
70323;BME280;57735;56.264;43.898;2023-03-15T07:53:49;100962.22;;;6.21;50.45
70323;BME280;57735;56.264;43.898;2023-03-15T07:56:20;100973.06;;;6.05;50.73
70323;BME280;57735;56.264;43.898;2023-03-15T07:58:51;100974.78;;;5.93;51.10
70323;BME280;57735;56.264;43.898;2023-03-15T08:01:21;100976.91;;;5.88;51.25
70323;BME280;57735;56.264;43.898;2023-03-15T08:03:52;100977.13;;;5.98;51.21
70323;BME280;57735;56.264;43.898;2023-03-15T08:06:22;100980.69;;;6.10;51.21
70323;BME280;57735;56.264;43.898;2023-03-15T08:08:55;100976.13;;;6.12;50.73
70323;BME280;57735;56.264;43.898;2023-03-15T08:11:26;100976.44;;;6.20;50.90
70323;BME280;57735;56.264;43.898;2023-03-15T08:13:56;100975.22;;;6.24;50.41
70323;BME280;57735;56.264;43.898;2023-03-15T08:16:29;100982.22;;;6.25;50.31
70323;BME280;57735;56.264;43.898;2023-03-15T08:19:00;100979.72;;;6.47;50.15
70323;BME280;57735;56.264;43.898;2023-03-15T08:21:30;100977.41;;;6.67;49.66
70323;BME280;57735;56.264;43.898;2023-03-15T08:24:02;100996.75;;;6.91;49.03
70323;BME280;57735;56.264;43.898;2023-03-15T08:26:34;100985.69;;;6.97;48.86
70323;BME280;57735;56.264;43.898;2023-03-15T08:29:06;101000.66;;;7.09;48.59
70323;BME280;57735;56.264;43.898;2023-03-15T08:31:37;100999.38;;;7.26;47.93
70323;BME280;57735;56.264;43.898;2023-03-15T08:34:08;101000.72;;;7.31;48.17
70323;BME280;57735;56.264;43.898;2023-03-15T08:36:38;101000.50;;;7.34;48.03
70323;BME280;57735;56.264;43.898;2023-03-15T08:39:09;100995.09;;;7.47;47.67
70323;BME280;57735;56.264;43.898;2023-03-15T08:41:43;101003.44;;;7.54;47.76
70323;BME280;57735;56.264;43.898;2023-03-15T08:44:14;101006.53;;;7.59;47.33
70323;BME280;57735;56.264;43.898;2023-03-15T08:46:45;100995.34;;;7.66;47.45
70323;BME280;57735;56.264;43.898;2023-03-15T08:49:15;101011.28;;;7.66;47.56
70323;BME280;57735;56.264;43.898;2023-03-15T08:51:46;101010.19;;;7.69;47.04
70323;BME280;57735;56.264;43.898;2023-03-15T08:54:16;101004.63;;;7.72;46.82
70323;BME280;57735;56.264;43.898;2023-03-15T08:56:47;101009.47;;;7.78;46.38
70323;BME280;57735;56.264;43.898;2023-03-15T08:59:18;101013.91;;;7.78;46.30
70323;BME280;57735;56.264;43.898;2023-03-15T09:01:48;101009.22;;;7.81;46.37
70323;BME280;57735;56.264;43.898;2023-03-15T09:04:19;101014.53;;;7.81;46.01
70323;BME280;57735;56.264;43.898;2023-03-15T09:06:50;100999.22;;;7.85;45.91
70323;BME280;57735;56.264;43.898;2023-03-15T09:09:22;100996.78;;;7.93;46.12
70323;BME280;57735;56.264;43.898;2023-03-15T09:11:52;100997.16;;;7.99;45.72
70323;BME280;57735;56.264;43.898;2023-03-15T09:14:24;100997.41;;;7.96;45.49
70323;BME280;57735;56.264;43.898;2023-03-15T09:16:55;100997.63;;;7.93;44.86
70323;BME280;57735;56.264;43.898;2023-03-15T09:19:25;101007.16;;;8.07;44.88
70323;BME280;57735;56.264;43.898;2023-03-15T09:21:56;100996.13;;;8.23;44.57
70323;BME280;57735;56.264;43.898;2023-03-15T09:24:27;101000.66;;;8.33;44.01
70323;BME280;57735;56.264;43.898;2023-03-15T09:26:57;100992.78;;;8.32;43.82
70323;BME280;57735;56.264;43.898;2023-03-15T09:29:28;100991.53;;;8.47;43.88
70323;BME280;57735;56.264;43.898;2023-03-15T09:31:58;100992.22;;;8.60;43.48
70323;BME280;57735;56.264;43.898;2023-03-15T09:34:31;100984.47;;;8.68;42.98
70323;BME280;57735;56.264;43.898;2023-03-15T09:37:02;100989.38;;;8.84;43.06
70323;BME280;57735;56.264;43.898;2023-03-15T09:39:32;100983.50;;;8.69;42.90
70323;BME280;57735;56.264;43.898;2023-03-15T09:42:03;100983.75;;;8.66;43.05
70323;BME280;57735;56.264;43.898;2023-03-15T09:47:50;100984.91;;;8.85;42.43
70323;BME280;57735;56.264;43.898;2023-03-15T09:50:33;100979.56;;;8.85;42.87
70323;BME280;57735;56.264;43.898;2023-03-15T09:53:07;100981.75;;;8.80;41.83
70323;BME280;57735;56.264;43.898;2023-03-15T09:55:41;100986.13;;;8.81;41.68
70323;BME280;57735;56.264;43.898;2023-03-15T09:58:15;100980.97;;;8.89;41.06
70323;BME280;57735;56.264;43.898;2023-03-15T10:00:48;100977.94;;;8.93;41.07
70323;BME280;57735;56.264;43.898;2023-03-15T10:03:22;100972.88;;;8.90;40.86
70323;BME280;57735;56.264;43.898;2023-03-15T10:06:00;100977.56;;;8.98;41.08
70323;BME280;57735;56.264;43.898;2023-03-15T10:08:31;100977.44;;;8.99;41.32
70323;BME280;57735;56.264;43.898;2023-03-15T10:24:19;100972.94;;;9.41;41.83
70323;BME280;57735;56.264;43.898;2023-03-15T10:26:51;100971.66;;;9.36;41.53
70323;BME280;57735;56.264;43.898;2023-03-15T10:29:23;100974.34;;;9.36;41.50
70323;BME280;57735;56.264;43.898;2023-03-15T10:31:56;100965.91;;;9.31;41.50
70323;BME280;57735;56.264;43.898;2023-03-15T10:34:26;100963.94;;;9.12;42.07
70323;BME280;57735;56.264;43.898;2023-03-15T10:36:57;100966.47;;;9.14;41.95
70323;BME280;57735;56.264;43.898;2023-03-15T10:39:28;100974.63;;;9.42;41.39
70323;BME280;57735;56.264;43.898;2023-03-15T10:41:59;100973.81;;;9.21;41.21
70323;BME280;57735;56.264;43.898;2023-03-15T10:44:29;100975.03;;;8.96;41.48
70323;BME280;57735;56.264;43.898;2023-03-15T10:47:06;100975.94;;;8.86;41.44
70323;BME280;57735;56.264;43.898;2023-03-15T10:49:42;100959.66;;;8.79;41.27
70323;BME280;57735;56.264;43.898;2023-03-15T10:52:27;100961.53;;;8.88;40.67
70323;BME280;57735;56.264;43.898;2023-03-15T10:54:59;100960.19;;;8.94;40.34
70323;BME280;57735;56.264;43.898;2023-03-15T10:57:34;100951.03;;;9.07;39.62
70323;BME280;57735;56.264;43.898;2023-03-15T11:00:17;100962.47;;;9.19;39.68
70323;BME280;57735;56.264;43.898;2023-03-15T11:02:50;100939.84;;;9.04;39.69
70323;BME280;57735;56.264;43.898;2023-03-15T11:05:21;100948.56;;;8.95;39.89
70323;BME280;57735;56.264;43.898;2023-03-15T11:07:53;100963.50;;;8.86;40.14
70323;BME280;57735;56.264;43.898;2023-03-15T11:10:27;100948.53;;;8.85;39.71
70323;BME280;57735;56.264;43.898;2023-03-15T11:13:08;100953.56;;;8.88;39.67
70323;BME280;57735;56.264;43.898;2023-03-15T11:15:42;100945.00;;;8.85;40.05
70323;BME280;57735;56.264;43.898;2023-03-15T11:18:17;100941.63;;;8.83;40.29
70323;BME280;57735;56.264;43.898;2023-03-15T11:20:50;100939.69;;;8.85;40.13
70323;BME280;57735;56.264;43.898;2023-03-15T11:23:26;100936.91;;;8.86;40.35
70323;BME280;57735;56.264;43.898;2023-03-15T11:25:57;100942.41;;;8.94;39.91
70323;BME280;57735;56.264;43.898;2023-03-15T11:28:29;100936.72;;;8.99;40.10
70323;BME280;57735;56.264;43.898;2023-03-15T11:31:01;100942.41;;;8.94;40.55
70323;BME280;57735;56.264;43.898;2023-03-15T11:34:16;100941.94;;;8.89;40.68
70323;BME280;57735;56.264;43.898;2023-03-15T11:36:28;100947.09;;;9.02;40.97
70323;BME280;57735;56.264;43.898;2023-03-15T11:39:00;100938.91;;;9.15;40.19
70323;BME280;57735;56.264;43.898;2023-03-15T11:46:43;100938.72;;;9.58;38.67
70323;BME280;57735;56.264;43.898;2023-03-15T11:49:36;100942.97;;;9.70;38.30
70323;BME280;57735;56.264;43.898;2023-03-15T11:52:13;100936.72;;;9.80;37.52
70323;BME280;57735;56.264;43.898;2023-03-15T11:54:46;100940.81;;;9.94;37.65
70323;BME280;57735;56.264;43.898;2023-03-15T12:02:52;100939.56;;;9.98;38.00
70323;BME280;57735;56.264;43.898;2023-03-15T12:11:11;100950.16;;;9.79;38.30
70323;BME280;57735;56.264;43.898;2023-03-15T12:13:53;100953.22;;;9.74;38.39
70323;BME280;57735;56.264;43.898;2023-03-15T12:16:41;100952.50;;;9.72;38.17
70323;BME280;57735;56.264;43.898;2023-03-15T12:26:58;100948.63;;;9.56;37.61
70323;BME280;57735;56.264;43.898;2023-03-15T12:29:31;100949.66;;;9.55;37.38
70323;BME280;57735;56.264;43.898;2023-03-15T12:32:04;100949.06;;;9.51;37.59
70323;BME280;57735;56.264;43.898;2023-03-15T12:37:08;100937.13;;;9.45;38.07
70323;BME280;57735;56.264;43.898;2023-03-15T12:42:14;100952.06;;;9.37;38.11
70323;BME280;57735;56.264;43.898;2023-03-15T12:50:55;100952.72;;;9.08;38.55
70323;BME280;57735;56.264;43.898;2023-03-15T12:58:53;100948.44;;;8.75;39.32
70323;BME280;57735;56.264;43.898;2023-03-15T13:01:24;100950.06;;;8.67;39.25
70323;BME280;57735;56.264;43.898;2023-03-15T13:03:56;100946.06;;;8.61;39.39
70323;BME280;57735;56.264;43.898;2023-03-15T13:06:35;100943.66;;;8.58;39.53
70323;BME280;57735;56.264;43.898;2023-03-15T13:19:33;100948.47;;;8.32;39.93
70323;BME280;57735;56.264;43.898;2023-03-15T13:22:16;100949.66;;;8.28;39.79
70323;BME280;57735;56.264;43.898;2023-03-15T13:25:02;100956.78;;;8.28;39.33
70323;BME280;57735;56.264;43.898;2023-03-15T13:30:33;100959.34;;;8.18;40.86
70323;BME280;57735;56.264;43.898;2023-03-15T13:33:13;100956.81;;;8.17;40.23
70323;BME280;57735;56.264;43.898;2023-03-15T13:35:58;100961.53;;;8.13;40.51
70323;BME280;57735;56.264;43.898;2023-03-15T13:38:39;100947.66;;;8.10;41.12
70323;BME280;57735;56.264;43.898;2023-03-15T13:41:20;100952.47;;;8.04;41.04
70323;BME280;57735;56.264;43.898;2023-03-15T13:43:54;100954.91;;;7.96;41.46
70323;BME280;57735;56.264;43.898;2023-03-15T13:46:26;100948.66;;;7.86;41.45
70323;BME280;57735;56.264;43.898;2023-03-15T13:48:58;100947.69;;;7.76;41.91
70323;BME280;57735;56.264;43.898;2023-03-15T13:51:30;100942.50;;;7.75;41.88
70323;BME280;57735;56.264;43.898;2023-03-15T13:56:56;100950.72;;;7.60;41.72
70323;BME280;57735;56.264;43.898;2023-03-15T13:59:31;100955.78;;;7.52;41.88
70323;BME280;57735;56.264;43.898;2023-03-15T14:02:04;100947.56;;;7.44;41.60
70323;BME280;57735;56.264;43.898;2023-03-15T14:04:35;100950.34;;;7.43;41.71
70323;BME280;57735;56.264;43.898;2023-03-15T14:07:22;100948.41;;;7.45;42.38
70323;BME280;57735;56.264;43.898;2023-03-15T14:10:07;100950.84;;;7.37;42.00
70323;BME280;57735;56.264;43.898;2023-03-15T14:12:38;100954.06;;;7.29;42.51
70323;BME280;57735;56.264;43.898;2023-03-15T14:15:54;100956.09;;;7.14;42.58
70323;BME280;57735;56.264;43.898;2023-03-15T14:20:39;100955.41;;;6.88;42.95
70323;BME280;57735;56.264;43.898;2023-03-15T14:23:11;100952.97;;;6.74;43.36
70323;BME280;57735;56.264;43.898;2023-03-15T14:28:34;100947.19;;;6.45;44.21
70323;BME280;57735;56.264;43.898;2023-03-15T14:31:04;100953.19;;;6.36;44.51
70323;BME280;57735;56.264;43.898;2023-03-15T14:33:38;100948.53;;;6.27;44.51
70323;BME280;57735;56.264;43.898;2023-03-15T14:36:20;100965.00;;;6.19;44.92
70323;BME280;57735;56.264;43.898;2023-03-15T14:38:52;100953.16;;;6.12;45.17
70323;BME280;57735;56.264;43.898;2023-03-15T14:43:56;100945.59;;;5.95;45.95
70323;BME280;57735;56.264;43.898;2023-03-15T14:46:28;100959.25;;;5.89;45.81